Time;durP1;ratioP1;P1;durP2;ratioP2;P2;SDS_P1;SDS_P2;PMS_P1;PMS_P2;Temp;Humidity;BMP_temperature;BMP_pressure;BME280_temperature;BME280_humidity;BME280_pressure;Samples;Min_cycle;Max_cycle;Signal;HPM_P1;HPM_P2
2022/07/18 00:00:08;;;;;;;0.40;0.40;;;19.70;99.90;;;;;;5073656;28;20189;-80
2022/07/18 00:02:34;;;;;;;0.30;0.30;;;19.60;99.90;;;;;;5069514;28;20196;-80
2022/07/18 00:04:59;;;;;;;0.10;0.10;;;19.60;99.90;;;;;;5068024;28;20185;-81
2022/07/18 00:07:25;;;;;;;0.20;0.20;;;19.40;99.90;;;;;;5071828;28;20705;-80
2022/07/18 00:09:50;;;;;;;0.10;0.10;;;19.20;99.90;;;;;;5072617;28;20193;-81
2022/07/18 00:12:16;;;;;;;0.20;0.20;;;19.00;99.90;;;;;;5071697;28;20215;-80
2022/07/18 00:14:42;;;;;;;0.30;0.20;;;19.00;99.90;;;;;;5072209;28;20230;-80
2022/07/18 00:17:08;;;;;;;0.50;0.50;;;19.10;99.90;;;;;;5067649;28;20181;-81
2022/07/18 00:19:35;;;;;;;0.17;0.17;;;19.10;99.90;;;;;;5066029;28;20203;-80
2022/07/18 00:22:01;;;;;;;0.10;0.10;;;19.00;99.90;;;;;;5065754;28;20203;-81
2022/07/18 00:24:27;;;;;;;0.10;0.10;;;19.00;99.90;;;;;;5078273;28;20188;-81
2022/07/18 00:26:53;;;;;;;0.30;0.30;;;19.00;99.90;;;;;;5075903;28;20558;-80
2022/07/18 00:29:18;;;;;;;0.23;0.23;;;18.80;99.90;;;;;;5081767;28;20570;-80
2022/07/18 00:31:44;;;;;;;0.50;0.50;;;18.70;99.90;;;;;;5070988;28;20575;-81
2022/07/18 00:34:09;;;;;;;0.13;0.13;;;18.60;99.90;;;;;;5084330;28;20178;-80
2022/07/18 00:36:35;;;;;;;0.13;0.13;;;18.60;99.90;;;;;;5073749;28;20262;-79
2022/07/18 00:39:01;;;;;;;0.30;0.30;;;18.60;99.90;;;;;;5084624;28;20249;-81
2022/07/18 00:41:27;;;;;;;0.20;0.20;;;18.60;99.90;;;;;;5076810;28;20601;-81
2022/07/18 00:43:52;;;;;;;0.27;0.27;;;18.50;99.90;;;;;;5072960;28;20202;-80
2022/07/18 00:46:23;;;;;;;0.20;0.20;;;18.50;99.90;;;;;;5071653;28;20665;-80
2022/07/18 00:48:48;;;;;;;0.30;0.30;;;18.50;99.90;;;;;;5073860;28;21040;-81
2022/07/18 00:51:14;;;;;;;0.20;0.20;;;18.60;99.90;;;;;;5069873;28;20201;-80
2022/07/18 00:53:40;;;;;;;0.43;0.23;;;18.70;99.90;;;;;;5078378;28;20687;-81
2022/07/18 00:56:05;;;;;;;0.20;0.20;;;18.70;99.90;;;;;;5068432;28;20186;-81
2022/07/18 00:58:32;;;;;;;0.20;0.20;;;18.70;99.90;;;;;;5086006;28;20584;-80
2022/07/18 01:03:42;;;;;;;0.20;0.20;;;18.60;99.90;;;;;;5063197;28;20773;-81
2022/07/18 01:06:07;;;;;;;0.20;0.20;;;18.60;99.90;;;;;;5066927;28;20276;-81
2022/07/18 01:08:35;;;;;;;0.30;0.30;;;18.50;99.90;;;;;;5069214;28;20285;-81
2022/07/18 01:11:00;;;;;;;0.17;0.17;;;18.50;99.90;;;;;;5069270;28;20173;-78
2022/07/18 01:13:26;;;;;;;0.53;0.53;;;18.50;99.90;;;;;;5072216;28;20183;-81
2022/07/18 01:15:52;;;;;;;0.20;0.20;;;18.40;99.90;;;;;;5072437;28;20238;-79
2022/07/18 01:18:17;;;;;;;0.60;0.60;;;18.30;99.90;;;;;;5073108;28;20194;-80
2022/07/18 01:20:43;;;;;;;0.10;0.10;;;18.10;99.90;;;;;;5068248;28;20182;-81
2022/07/18 01:23:08;;;;;;;1.67;0.40;;;18.10;99.90;;;;;;5079043;28;20268;-80
2022/07/18 01:25:34;;;;;;;0.30;0.30;;;18.20;99.90;;;;;;5064824;28;20639;-80
2022/07/18 01:28:00;;;;;;;0.20;0.20;;;18.30;99.90;;;;;;5082876;28;20629;-80
2022/07/18 01:30:26;;;;;;;0.60;0.47;;;18.00;99.90;;;;;;5065633;28;20319;-80
2022/07/18 01:33:00;;;;;;;0.20;0.20;;;18.00;99.90;;;;;;5071427;28;20197;-80
2022/07/18 01:35:27;;;;;;;0.10;0.10;;;17.80;99.90;;;;;;5069600;28;20196;-81
2022/07/18 01:37:55;;;;;;;0.30;0.30;;;17.80;99.90;;;;;;5066317;28;20199;-80
2022/07/18 01:40:21;;;;;;;0.20;0.20;;;17.70;99.90;;;;;;5073434;28;20211;-80
2022/07/18 01:42:46;;;;;;;0.30;0.30;;;17.70;99.90;;;;;;5073172;28;20260;-80
2022/07/18 01:45:12;;;;;;;0.20;0.20;;;17.70;99.90;;;;;;5072276;28;20184;-80
2022/07/18 01:47:38;;;;;;;1.73;0.83;;;17.80;99.90;;;;;;5071365;28;20690;-79
2022/07/18 01:50:05;;;;;;;0.10;0.10;;;17.80;99.90;;;;;;5071462;28;20322;-79
2022/07/18 01:52:31;;;;;;;0.30;0.30;;;17.80;99.90;;;;;;5065052;28;20748;-81
2022/07/18 01:54:57;;;;;;;0.20;0.20;;;17.80;99.90;;;;;;5067085;28;20268;-80
2022/07/18 01:57:23;;;;;;;0.20;0.20;;;17.70;99.90;;;;;;5070236;28;20180;-80
2022/07/18 01:59:49;;;;;;;0.73;0.40;;;17.70;99.90;;;;;;5068435;28;20178;-80
2022/07/18 02:02:15;;;;;;;0.10;0.10;;;17.70;99.90;;;;;;5068548;28;20185;-80
2022/07/18 02:07:24;;;;;;;0.23;0.20;;;17.60;99.90;;;;;;5068594;28;20185;-79
2022/07/18 02:09:50;;;;;;;0.40;0.23;;;17.60;99.90;;;;;;5073160;28;20181;-79
2022/07/18 02:12:15;;;;;;;1.73;0.50;;;17.40;99.90;;;;;;5068489;28;20198;-79
2022/07/18 02:14:41;;;;;;;0.33;0.30;;;17.40;99.90;;;;;;5069993;28;20594;-80
2022/07/18 02:17:06;;;;;;;0.60;0.60;;;17.50;99.90;;;;;;5069381;28;20654;-79
2022/07/18 02:19:32;;;;;;;0.10;0.10;;;17.50;99.90;;;;;;5078380;28;20196;-79
2022/07/18 02:21:57;;;;;;;0.17;0.17;;;17.60;99.90;;;;;;5075613;28;20185;-79
2022/07/18 02:24:23;;;;;;;0.20;0.20;;;17.60;99.90;;;;;;5077393;28;20181;-79
2022/07/18 02:26:48;;;;;;;0.20;0.20;;;17.60;99.90;;;;;;5073160;28;20196;-79
2022/07/18 02:29:14;;;;;;;0.20;0.20;;;17.70;99.90;;;;;;5075916;28;20603;-79
2022/07/18 02:31:39;;;;;;;0.10;0.10;;;17.70;99.90;;;;;;5071568;28;20326;-79
2022/07/18 02:34:09;;;;;;;0.40;0.30;;;17.80;99.90;;;;;;5072715;28;20184;-79
2022/07/18 02:36:37;;;;;;;0.20;0.20;;;17.70;99.90;;;;;;5069735;28;20177;-79
2022/07/18 02:39:03;;;;;;;0.10;0.10;;;17.80;99.90;;;;;;5076766;28;20200;-79
2022/07/18 02:41:28;;;;;;;0.10;0.10;;;17.80;99.90;;;;;;5066420;28;20189;-80
2022/07/18 02:43:54;;;;;;;0.27;0.27;;;17.80;99.90;;;;;;5073418;28;20190;-79
2022/07/18 02:46:19;;;;;;;0.30;0.30;;;17.80;99.90;;;;;;5066192;28;20185;-79
2022/07/18 02:48:45;;;;;;;0.33;0.30;;;17.70;99.90;;;;;;5071802;28;20624;-79
2022/07/18 02:51:10;;;;;;;0.20;0.20;;;17.80;99.90;;;;;;5066601;28;20206;-79
2022/07/18 02:53:36;;;;;;;0.20;0.20;;;17.80;99.90;;;;;;5077042;28;20180;-79
2022/07/18 02:56:02;;;;;;;0.30;0.30;;;17.80;99.90;;;;;;5074359;28;20548;-79
2022/07/18 02:58:27;;;;;;;0.87;0.60;;;17.90;99.90;;;;;;5073931;28;20199;-79
2022/07/18 03:00:53;;;;;;;0.20;0.20;;;17.70;99.90;;;;;;5072241;28;20519;-79
2022/07/18 03:03:18;;;;;;;0.20;0.20;;;17.40;99.90;;;;;;5060240;28;20640;-79
2022/07/18 03:05:44;;;;;;;0.10;0.10;;;17.50;99.90;;;;;;5072290;28;20221;-80
2022/07/18 03:08:09;;;;;;;0.10;0.10;;;17.40;99.90;;;;;;5062207;28;20227;-79
2022/07/18 03:10:35;;;;;;;0.10;0.10;;;17.40;99.90;;;;;;5074725;28;20247;-79
2022/07/18 03:13:00;;;;;;;0.20;0.20;;;17.50;99.90;;;;;;5064278;28;20682;-79
2022/07/18 03:15:26;;;;;;;0.20;0.20;;;17.60;99.90;;;;;;5077325;28;20661;-79
2022/07/18 03:17:51;;;;;;;0.20;0.20;;;17.70;99.90;;;;;;5068555;28;20568;-79
2022/07/18 03:20:17;;;;;;;0.17;0.17;;;17.70;99.90;;;;;;5062458;28;20174;-80
2022/07/18 03:22:42;;;;;;;0.13;0.13;;;17.70;99.90;;;;;;5064186;28;20197;-79
2022/07/18 03:25:08;;;;;;;0.20;0.20;;;17.70;99.90;;;;;;5064333;28;20220;-79
2022/07/18 03:27:34;;;;;;;0.30;0.30;;;17.80;99.90;;;;;;5068069;28;20193;-79
2022/07/18 03:29:59;;;;;;;0.40;0.40;;;17.80;99.90;;;;;;5068383;28;20185;-79
2022/07/18 03:32:25;;;;;;;0.20;0.20;;;17.70;99.90;;;;;;5064106;28;20212;-79
2022/07/18 03:34:50;;;;;;;0.10;0.10;;;17.70;99.90;;;;;;5068807;28;20204;-79
2022/07/18 03:37:16;;;;;;;0.30;0.30;;;17.70;99.90;;;;;;5059854;28;20199;-79
2022/07/18 03:39:41;;;;;;;0.10;0.10;;;17.90;99.90;;;;;;5068653;28;20689;-79
2022/07/18 03:42:07;;;;;;;0.20;0.20;;;17.90;99.90;;;;;;5071581;28;20226;-79
2022/07/18 03:44:32;;;;;;;0.40;0.40;;;18.00;99.90;;;;;;5065765;28;20194;-79
2022/07/18 03:46:58;;;;;;;0.20;0.20;;;18.00;99.90;;;;;;5069746;28;20255;-79
2022/07/18 03:49:23;;;;;;;0.20;0.20;;;18.10;99.90;;;;;;5079268;28;20232;-79
2022/07/18 03:51:49;;;;;;;0.33;0.33;;;18.10;99.90;;;;;;5075797;28;20244;-80
2022/07/18 03:54:14;;;;;;;1.10;0.20;;;18.10;99.90;;;;;;5069041;28;20269;-80
2022/07/18 03:56:40;;;;;;;0.57;0.37;;;18.60;99.90;;;;;;5071683;28;20231;-79
2022/07/18 03:59:05;;;;;;;0.30;0.30;;;19.50;99.90;;;;;;5071081;28;20840;-79
2022/07/18 04:01:31;;;;;;;0.33;0.33;;;20.20;99.90;;;;;;5061833;28;21055;-80
2022/07/18 04:03:56;;;;;;;0.47;0.47;;;20.90;99.90;;;;;;5062347;28;20265;-80
2022/07/18 04:06:22;;;;;;;0.20;0.20;;;21.50;99.90;;;;;;5076114;28;20688;-80
2022/07/18 04:08:47;;;;;;;0.30;0.30;;;22.10;99.90;;;;;;5067170;28;21005;-80
2022/07/18 04:11:13;;;;;;;0.20;0.20;;;22.60;99.90;;;;;;5066225;28;20201;-80
2022/07/18 04:13:39;;;;;;;1.07;1.07;;;23.00;99.90;;;;;;5065955;28;20197;-80
2022/07/18 04:16:04;;;;;;;4.03;0.30;;;23.20;99.90;;;;;;5072507;28;20181;-81
2022/07/18 04:18:30;;;;;;;0.50;0.50;;;23.50;99.90;;;;;;5075820;28;20200;-80
2022/07/18 04:20:55;;;;;;;0.23;0.23;;;23.70;99.90;;;;;;5073569;28;20180;-79
2022/07/18 04:23:21;;;;;;;0.30;0.30;;;23.80;99.90;;;;;;5071533;28;20188;-80
2022/07/18 04:25:46;;;;;;;0.20;0.20;;;23.20;99.90;;;;;;5074192;28;20230;-80
2022/07/18 04:28:13;;;;;;;0.50;0.30;;;22.40;99.90;;;;;;5069413;28;20544;-80
2022/07/18 04:30:40;;;;;;;0.30;0.30;;;22.10;99.90;;;;;;5072220;28;20185;-80
2022/07/18 04:33:07;;;;;;;0.20;0.20;;;21.90;99.90;;;;;;5061717;28;20208;-82
2022/07/18 04:35:37;;;;;;;0.47;0.47;;;21.50;99.90;;;;;;5072244;28;20173;-80
2022/07/18 04:38:04;;;;;;;0.20;0.20;;;21.00;99.90;;;;;;5074406;28;20659;-80
2022/07/18 04:40:30;;;;;;;0.20;0.20;;;20.80;99.90;;;;;;5070996;28;20270;-80
2022/07/18 04:42:56;;;;;;;0.20;0.20;;;20.60;99.90;;;;;;5073558;28;20185;-80
2022/07/18 04:45:23;;;;;;;0.20;0.20;;;20.30;99.90;;;;;;5072499;28;20212;-80
2022/07/18 04:47:52;;;;;;;0.33;0.33;;;20.30;99.90;;;;;;5074702;28;20212;-81
2022/07/18 04:50:19;;;;;;;0.37;0.37;;;20.20;99.90;;;;;;5072303;28;20732;-80
2022/07/18 04:52:46;;;;;;;0.20;0.20;;;20.30;99.90;;;;;;5064497;28;20701;-81
2022/07/18 04:55:13;;;;;;;0.20;0.20;;;20.20;99.90;;;;;;5089367;28;20600;-81
2022/07/18 04:57:39;;;;;;;0.10;0.10;;;20.20;99.90;;;;;;5074148;28;20181;-80
2022/07/18 05:00:09;;;;;;;0.10;0.10;;;20.30;99.90;;;;;;5084508;28;20192;-80
2022/07/18 05:02:34;;;;;;;0.20;0.20;;;20.20;99.90;;;;;;5074070;28;20184;-80
2022/07/18 05:05:00;;;;;;;0.43;0.20;;;20.20;99.90;;;;;;5071654;28;20190;-81
2022/07/18 05:07:26;;;;;;;0.30;0.30;;;20.20;99.90;;;;;;5075184;28;20177;-80
2022/07/18 05:09:51;;;;;;;0.17;0.17;;;20.20;99.90;;;;;;5074114;28;20211;-80
2022/07/18 05:12:18;;;;;;;0.40;0.40;;;20.20;99.90;;;;;;5067550;28;20251;-83
2022/07/18 05:14:44;;;;;;;0.30;0.30;;;20.20;99.90;;;;;;5081973;28;20238;-81
2022/07/18 05:17:10;;;;;;;1.33;0.53;;;20.10;99.90;;;;;;5073287;28;20721;-80
2022/07/18 05:19:35;;;;;;;0.43;0.43;;;20.00;99.90;;;;;;5061670;28;20226;-81
2022/07/18 05:22:00;;;;;;;0.30;0.30;;;20.00;99.90;;;;;;5081052;28;20219;-80
2022/07/18 05:24:26;;;;;;;0.30;0.30;;;19.90;99.90;;;;;;5075796;28;20187;-81
2022/07/18 05:26:52;;;;;;;0.20;0.20;;;19.90;99.90;;;;;;5076989;28;20182;-81
2022/07/18 05:29:17;;;;;;;0.67;0.50;;;19.80;99.90;;;;;;5072002;28;20197;-80
2022/07/18 05:31:43;;;;;;;0.30;0.30;;;19.70;99.90;;;;;;5069880;28;20681;-81
2022/07/18 05:34:08;;;;;;;0.33;0.33;;;19.70;99.90;;;;;;5072527;28;20714;-81
2022/07/18 05:36:34;;;;;;;0.30;0.30;;;19.60;99.90;;;;;;5078518;28;20179;-81
2022/07/18 05:39:00;;;;;;;0.30;0.30;;;19.60;99.90;;;;;;5069783;28;20201;-80
2022/07/18 05:41:27;;;;;;;0.97;0.40;;;19.70;99.90;;;;;;5073902;28;20538;-80
2022/07/18 05:43:52;;;;;;;0.13;0.13;;;19.70;99.90;;;;;;5070729;28;20194;-79
2022/07/18 05:46:18;;;;;;;0.40;0.40;;;19.90;99.90;;;;;;5069271;28;20644;-79
2022/07/18 05:48:44;;;;;;;0.20;0.20;;;20.00;99.90;;;;;;5065870;28;20222;-79
2022/07/18 05:51:10;;;;;;;0.30;0.30;;;20.20;99.90;;;;;;5066670;28;20221;-79
2022/07/18 05:53:36;;;;;;;0.20;0.20;;;20.30;99.90;;;;;;5066082;28;20205;-81
2022/07/18 05:56:01;;;;;;;0.30;0.30;;;20.40;99.90;;;;;;5065731;28;20877;-80
2022/07/18 05:58:27;;;;;;;0.27;0.27;;;20.50;99.90;;;;;;5060197;28;20225;-80
2022/07/18 06:00:53;;;;;;;0.23;0.23;;;20.70;99.90;;;;;;5067103;28;20185;-79
2022/07/18 06:03:19;;;;;;;0.50;0.50;;;20.80;99.90;;;;;;5058120;28;20193;-80
2022/07/18 06:05:45;;;;;;;0.30;0.30;;;20.90;99.90;;;;;;5068301;28;20202;-80
2022/07/18 06:08:10;;;;;;;0.43;0.43;;;21.00;99.90;;;;;;5070256;28;20209;-80
2022/07/18 06:10:36;;;;;;;0.50;0.50;;;21.10;99.90;;;;;;5071822;28;20692;-80
2022/07/18 06:13:01;;;;;;;0.63;0.63;;;21.20;99.90;;;;;;5075798;28;20213;-80
2022/07/18 06:15:27;;;;;;;0.50;0.50;;;21.20;99.90;;;;;;5074956;28;20189;-78
2022/07/18 06:17:52;;;;;;;1.70;0.50;;;21.30;99.90;;;;;;5072627;28;20213;-78
2022/07/18 06:20:18;;;;;;;0.20;0.20;;;21.30;99.90;;;;;;5065765;28;20190;-80
2022/07/18 06:22:44;;;;;;;0.30;0.30;;;21.50;99.90;;;;;;5064456;28;20217;-81
2022/07/18 06:25:10;;;;;;;0.50;0.40;;;21.60;99.90;;;;;;5072044;28;20589;-78
2022/07/18 06:27:35;;;;;;;0.50;0.47;;;21.70;99.90;;;;;;5069256;28;20189;-79
2022/07/18 06:30:04;;;;;;;0.30;0.30;;;22.00;99.90;;;;;;5072870;28;20192;-80
2022/07/18 06:32:30;;;;;;;0.20;0.20;;;22.10;99.90;;;;;;5065842;28;20201;-81
2022/07/18 06:34:55;;;;;;;0.40;0.40;;;22.30;99.90;;;;;;5066340;28;20189;-80
2022/07/18 06:37:21;;;;;;;0.53;0.53;;;22.40;99.90;;;;;;5070443;28;20246;-78
2022/07/18 06:39:46;;;;;;;0.47;0.40;;;22.50;99.90;;;;;;5070025;28;20189;-80
2022/07/18 06:42:12;;;;;;;0.53;0.30;;;22.70;99.90;;;;;;5064527;28;20658;-79
2022/07/18 06:44:37;;;;;;;0.47;0.30;;;22.80;99.90;;;;;;5067385;28;20697;-79
2022/07/18 06:47:03;;;;;;;0.40;0.40;;;23.00;99.90;;;;;;5066002;28;20201;-80
2022/07/18 06:49:28;;;;;;;5.00;0.27;;;23.10;99.90;;;;;;5065207;28;20201;-79
2022/07/18 06:51:54;;;;;;;0.30;0.30;;;23.20;99.90;;;;;;5069865;28;20205;-81
2022/07/18 06:54:20;;;;;;;0.20;0.20;;;23.30;99.90;;;;;;5059698;28;20185;-80
2022/07/18 06:56:46;;;;;;;0.40;0.40;;;23.40;99.90;;;;;;5067475;28;20204;-78
2022/07/18 06:59:11;;;;;;;0.90;0.43;;;23.60;99.90;;;;;;5072178;28;20228;-79
2022/07/18 07:01:37;;;;;;;0.40;0.40;;;23.80;99.90;;;;;;5066556;28;20181;-79
2022/07/18 07:04:03;;;;;;;0.30;0.30;;;24.00;99.90;;;;;;5066636;28;20196;-82
2022/07/18 07:06:28;;;;;;;0.53;0.30;;;24.20;99.90;;;;;;5070618;28;20189;-83
2022/07/18 07:08:54;;;;;;;0.30;0.30;;;24.30;99.90;;;;;;5063488;28;20240;-82
2022/07/18 07:11:21;;;;;;;0.20;0.20;;;24.50;99.90;;;;;;5067699;28;20217;-82
2022/07/18 07:13:47;;;;;;;0.30;0.30;;;24.70;99.90;;;;;;5067903;28;20173;-82
2022/07/18 07:16:13;;;;;;;0.20;0.20;;;24.70;99.90;;;;;;5067706;28;20183;-82
2022/07/18 07:18:38;;;;;;;0.37;0.37;;;24.90;99.90;;;;;;5071486;28;20247;-82
2022/07/18 07:21:05;;;;;;;0.30;0.30;;;25.10;99.90;;;;;;5068457;28;20645;-83
2022/07/18 07:23:31;;;;;;;2.30;1.47;;;25.30;99.90;;;;;;5062377;28;20262;-81
2022/07/18 07:25:56;;;;;;;0.73;0.73;;;25.20;99.90;;;;;;5060818;28;20268;-83
2022/07/18 07:28:22;;;;;;;3.73;3.43;;;25.30;99.90;;;;;;5060897;28;20554;-82
2022/07/18 07:30:47;;;;;;;0.97;0.97;;;25.50;99.90;;;;;;5066607;28;20176;-82
2022/07/18 07:33:13;;;;;;;0.33;0.33;;;25.40;99.90;;;;;;5079696;28;20201;-82
2022/07/18 07:35:39;;;;;;;1.27;1.13;;;25.70;99.90;;;;;;5065193;28;20234;-83
2022/07/18 07:38:04;;;;;;;0.50;0.50;;;25.50;99.90;;;;;;5079127;28;20202;-82
2022/07/18 07:40:30;;;;;;;0.53;0.53;;;25.90;99.90;;;;;;5060492;28;20711;-82
2022/07/18 07:43:08;;;;;;;0.30;0.30;;;26.00;99.90;;;;;;5064685;28;20186;-82
2022/07/18 07:45:34;;;;;;;0.47;0.47;;;26.20;99.90;;;;;;5064686;28;20177;-81
2022/07/18 07:48:00;;;;;;;0.20;0.20;;;26.50;99.90;;;;;;5072273;28;20208;-82
2022/07/18 07:50:25;;;;;;;1.20;0.50;;;26.70;99.90;;;;;;5083157;28;20889;-83
2022/07/18 07:52:52;;;;;;;0.20;0.20;;;26.80;99.50;;;;;;5072313;28;20221;-82
2022/07/18 07:55:17;;;;;;;0.10;0.10;;;26.90;99.20;;;;;;5066822;28;20548;-83
2022/07/18 07:57:43;;;;;;;0.20;0.20;;;27.00;99.30;;;;;;5077249;28;20201;-82
2022/07/18 08:00:09;;;;;;;0.20;0.20;;;26.60;97.70;;;;;;5073992;28;20177;-83
2022/07/18 08:02:35;;;;;;;0.20;0.20;;;26.30;98.20;;;;;;5063045;28;20178;-82
2022/07/18 08:05:01;;;;;;;0.73;0.40;;;26.50;98.20;;;;;;5074600;28;20184;-82
2022/07/18 08:07:27;;;;;;;0.23;0.23;;;26.30;98.10;;;;;;5076083;28;20691;-82
2022/07/18 08:09:52;;;;;;;0.60;0.60;;;26.10;97.80;;;;;;5064083;28;20193;-84
2022/07/18 08:12:18;;;;;;;0.77;0.40;;;26.10;98.50;;;;;;5070675;28;20203;-83
2022/07/18 08:14:44;;;;;;;1.80;0.40;;;26.20;98.10;;;;;;5069073;28;20638;-83
2022/07/18 08:17:09;;;;;;;0.20;0.20;;;26.40;98.30;;;;;;5070748;28;20176;-84
2022/07/18 08:19:35;;;;;;;0.20;0.20;;;26.60;98.20;;;;;;5069345;28;20190;-83
2022/07/18 08:22:01;;;;;;;0.30;0.30;;;27.00;98.50;;;;;;5071010;28;20435;-82
2022/07/18 08:24:26;;;;;;;0.33;0.33;;;27.20;98.30;;;;;;5068063;28;20231;-79
2022/07/18 08:26:52;;;;;;;0.30;0.30;;;27.00;98.10;;;;;;5059519;28;20189;-79
2022/07/18 08:29:17;;;;;;;0.27;0.27;;;26.70;97.70;;;;;;5062868;28;20546;-79
2022/07/18 08:31:43;;;;;;;0.20;0.20;;;26.70;97.50;;;;;;5066270;28;20205;-78
2022/07/18 08:34:08;;;;;;;0.23;0.23;;;27.00;97.60;;;;;;5067012;28;20192;-79
2022/07/18 08:36:34;;;;;;;0.70;0.50;;;27.20;97.20;;;;;;5064056;28;20185;-79
2022/07/18 08:38:59;;;;;;;0.38;0.38;;;27.40;97.10;;;;;;5067942;28;20205;-78
2022/07/18 08:41:27;;;;;;;0.30;0.30;;;27.70;97.30;;;;;;5061389;28;20185;-79
2022/07/18 08:43:53;;;;;;;0.40;0.40;;;27.40;97.80;;;;;;5064774;28;20196;-80
2022/07/18 08:46:21;;;;;;;0.80;0.35;;;27.50;97.80;;;;;;5066218;28;20627;-79
2022/07/18 08:48:48;;;;;;;0.30;0.30;;;28.00;97.40;;;;;;5064207;28;20252;-84
2022/07/18 08:51:14;;;;;;;0.20;0.20;;;28.30;96.90;;;;;;5063051;28;20178;-79
2022/07/18 08:53:40;;;;;;;0.28;0.28;;;28.30;96.70;;;;;;5058858;28;20182;-79
2022/07/18 08:56:06;;;;;;;0.32;0.32;;;28.60;96.30;;;;;;5062998;28;20173;-80
2022/07/18 08:58:31;;;;;;;0.40;0.40;;;28.90;96.40;;;;;;5071024;28;20210;-80
2022/07/18 09:01:00;;;;;;;0.20;0.20;;;29.00;96.40;;;;;;5072453;28;20587;-79
2022/07/18 09:03:26;;;;;;;1.45;1.35;;;29.30;96.20;;;;;;5064080;28;20184;-80
2022/07/18 09:06:10;;;;;;;0.20;0.20;;;29.30;95.00;;;;;;5074887;28;20198;-79
2022/07/18 09:08:37;;;;;;;0.55;0.55;;;29.40;95.60;;;;;;5065593;28;20228;-82
2022/07/18 09:11:08;;;;;;;0.30;0.30;;;29.50;95.30;;;;;;5075931;28;20185;-81
2022/07/18 09:13:34;;;;;;;0.75;0.65;;;29.10;96.20;;;;;;5072998;28;20256;-82
2022/07/18 09:16:11;;;;;;;0.30;0.30;;;29.40;95.90;;;;;;5079206;28;20217;-81
2022/07/18 09:18:41;;;;;;;0.80;0.80;;;29.50;95.10;;;;;;5063812;28;20212;-79
2022/07/18 09:21:21;;;;;;;0.45;0.45;;;29.50;96.00;;;;;;5060119;28;20261;-79
2022/07/18 09:23:49;;;;;;;0.45;0.45;;;29.80;95.40;;;;;;5074608;28;20230;-79
2022/07/18 09:26:43;;;;;;;0.20;0.20;;;30.10;95.20;;;;;;5069403;28;20641;-79
2022/07/18 09:29:15;;;;;;;0.30;0.30;;;30.10;94.30;;;;;;5074327;28;20204;-80
2022/07/18 09:31:49;;;;;;;0.20;0.20;;;30.10;94.40;;;;;;5077526;28;20231;-80
2022/07/18 09:34:31;;;;;;;0.30;0.30;;;30.10;94.80;;;;;;5077200;28;20184;-80
2022/07/18 09:36:57;;;;;;;0.30;0.30;;;30.20;94.60;;;;;;5077440;28;20184;-80
2022/07/18 09:39:23;;;;;;;2.17;0.30;;;30.10;94.50;;;;;;5079106;28;20292;-79
2022/07/18 09:41:48;;;;;;;0.20;0.20;;;29.80;94.90;;;;;;5084064;28;20235;-80
2022/07/18 09:44:18;;;;;;;0.30;0.30;;;30.10;94.30;;;;;;5077384;28;20184;-81
2022/07/18 09:47:01;;;;;;;0.20;0.20;;;30.10;94.20;;;;;;5079951;28;20181;-80
2022/07/18 09:49:34;;;;;;;0.20;0.20;;;30.30;93.70;;;;;;5076933;28;20709;-80
2022/07/18 09:52:08;;;;;;;0.20;0.20;;;30.40;94.00;;;;;;5069007;28;20200;-81
2022/07/18 09:54:39;;;;;;;0.45;0.45;;;30.70;94.60;;;;;;5072440;28;20174;-80
2022/07/18 09:57:04;;;;;;;0.30;0.30;;;30.80;93.60;;;;;;5075719;28;20198;-80
2022/07/18 09:59:30;;;;;;;0.30;0.30;;;31.00;93.90;;;;;;5071499;28;20212;-79
2022/07/18 10:01:56;;;;;;;0.50;0.40;;;31.20;93.40;;;;;;5073119;28;20172;-79
2022/07/18 10:04:22;;;;;;;0.30;0.30;;;31.30;92.80;;;;;;5073546;28;20241;-79
2022/07/18 10:06:47;;;;;;;0.32;0.32;;;31.40;92.60;;;;;;5075234;28;20235;-79
2022/07/18 10:09:13;;;;;;;0.85;0.40;;;31.40;92.80;;;;;;5066409;28;20706;-79
2022/07/18 10:11:40;;;;;;;0.43;0.35;;;31.40;92.30;;;;;;5066868;28;20197;-77
2022/07/18 10:14:06;;;;;;;0.45;0.45;;;31.50;92.80;;;;;;5068817;28;20177;-77
2022/07/18 10:16:32;;;;;;;0.20;0.20;;;31.60;91.90;;;;;;5066327;28;20722;-78
2022/07/18 10:18:59;;;;;;;0.40;0.40;;;31.70;92.00;;;;;;5076591;28;20232;-77
2022/07/18 10:21:25;;;;;;;0.50;0.50;;;31.70;91.40;;;;;;5068414;28;20177;-77
2022/07/18 10:23:52;;;;;;;0.35;0.35;;;31.70;91.70;;;;;;5068015;28;20192;-78
2022/07/18 10:26:29;;;;;;;0.50;0.50;;;31.90;91.80;;;;;;5064950;28;20174;-78
2022/07/18 10:31:31;;;;;;;0.40;0.40;;;32.30;91.00;;;;;;5064450;28;20612;-78
2022/07/18 10:34:11;;;;;;;0.25;0.25;;;31.80;90.50;;;;;;5072342;28;20181;-78
2022/07/18 10:36:41;;;;;;;0.70;0.70;;;31.70;91.50;;;;;;5064942;28;20551;-78
2022/07/18 10:39:13;;;;;;;0.30;0.30;;;31.90;91.20;;;;;;5071500;28;20678;-77
2022/07/18 10:41:39;;;;;;;0.20;0.20;;;31.80;91.40;;;;;;5070911;28;20204;-79
2022/07/18 10:44:27;;;;;;;0.40;0.40;;;32.00;91.20;;;;;;5064732;28;20223;-79
2022/07/18 10:47:09;;;;;;;0.30;0.30;;;32.30;91.90;;;;;;5073992;28;20192;-79
2022/07/18 10:49:49;;;;;;;0.15;0.15;;;32.50;91.00;;;;;;5073189;28;20295;-79
2022/07/18 10:55:21;;;;;;;0.20;0.20;;;32.60;90.80;;;;;;5067639;28;20673;-79
2022/07/18 10:57:50;;;;;;;1.30;1.20;;;32.60;91.20;;;;;;5058610;28;20225;-79
2022/07/18 11:00:23;;;;;;;0.20;0.20;;;32.60;91.30;;;;;;5074240;28;20241;-87
2022/07/18 11:03:05;;;;;;;0.30;0.30;;;32.60;91.60;;;;;;5079356;28;20177;-81
2022/07/18 11:05:31;;;;;;;0.43;0.43;;;32.70;91.00;;;;;;5075002;28;20184;-79
2022/07/18 11:08:02;;;;;;;0.50;0.50;;;32.40;91.30;;;;;;5074742;28;20197;-80
2022/07/18 11:13:24;;;;;;;0.30;0.30;;;31.60;91.00;;;;;;5070730;28;20223;-78
2022/07/18 11:16:19;;;;;;;0.30;0.30;;;31.80;91.50;;;;;;5068549;28;20922;-79
2022/07/18 11:18:45;;;;;;;0.40;0.40;;;31.20;91.70;;;;;;5073433;28;20205;-79
2022/07/18 11:21:31;;;;;;;0.20;0.20;;;31.60;92.40;;;;;;5064556;28;20185;-79
2022/07/18 11:24:06;;;;;;;0.20;0.20;;;32.20;91.90;;;;;;5066056;28;20203;-78
2022/07/18 11:26:33;;;;;;;0.32;0.32;;;32.60;91.20;;;;;;5068277;28;20188;-79
2022/07/18 11:29:07;;;;;;;0.77;0.30;;;32.60;90.60;;;;;;5061134;28;20197;-79
2022/07/18 11:31:56;;;;;;;0.20;0.20;;;32.80;91.20;;;;;;5065707;28;20203;-79
2022/07/18 11:34:23;;;;;;;0.22;0.22;;;33.10;91.10;;;;;;5062218;28;20696;-79
2022/07/18 11:36:49;;;;;;;0.20;0.20;;;33.10;91.00;;;;;;5068319;28;20216;-79
2022/07/18 11:39:30;;;;;;;0.35;0.35;;;33.20;91.10;;;;;;5065991;28;20929;-79
2022/07/18 11:41:56;;;;;;;0.30;0.30;;;33.40;90.90;;;;;;5064975;28;20927;-79
2022/07/18 11:44:26;;;;;;;0.30;0.30;;;33.50;90.50;;;;;;5063480;28;20192;-78
2022/07/18 11:47:10;;;;;;;0.30;0.30;;;33.60;90.60;;;;;;5069598;28;20216;-78
2022/07/18 11:49:37;;;;;;;0.35;0.30;;;33.70;90.30;;;;;;5071676;28;20189;-79
2022/07/18 11:52:04;;;;;;;0.25;0.25;;;33.40;90.10;;;;;;5060116;28;20188;-79
2022/07/18 11:54:30;;;;;;;0.85;0.85;;;33.60;90.60;;;;;;5070448;28;20203;-79
2022/07/18 11:56:56;;;;;;;0.40;0.28;;;33.00;90.60;;;;;;5069474;28;20288;-79
2022/07/18 11:59:22;;;;;;;0.30;0.30;;;33.20;90.50;;;;;;5068582;28;20230;-79
2022/07/18 12:01:55;;;;;;;0.30;0.30;;;33.40;90.10;;;;;;5066527;28;20250;-79
2022/07/18 12:04:23;;;;;;;0.70;0.70;;;33.50;89.50;;;;;;5077725;28;20688;-79
2022/07/18 12:07:24;;;;;;;0.30;0.30;;;33.60;90.10;;;;;;5073633;28;20198;-79
2022/07/18 12:09:50;;;;;;;0.30;0.30;;;33.70;90.40;;;;;;5072261;28;20201;-79
2022/07/18 12:12:18;;;;;;;0.30;0.30;;;33.10;87.50;;;;;;5091733;28;20208;-80
2022/07/18 12:14:53;;;;;;;1.30;0.50;;;32.90;89.00;;;;;;5073664;28;20184;-79
2022/07/18 12:17:19;;;;;;;0.45;0.45;;;32.80;90.00;;;;;;5070504;28;20185;-79
2022/07/18 12:19:44;;;;;;;0.43;0.43;;;33.00;90.60;;;;;;5070750;28;20252;-79
2022/07/18 12:22:12;;;;;;;0.43;0.40;;;32.50;90.10;;;;;;5069775;28;20184;-79
2022/07/18 12:24:40;;;;;;;0.28;0.28;;;32.80;90.20;;;;;;5068809;28;20787;-79
2022/07/18 12:27:12;;;;;;;0.30;0.30;;;33.30;90.20;;;;;;5069409;28;20287;-78
2022/07/18 12:30:04;;;;;;;0.30;0.30;;;32.80;90.00;;;;;;5077873;28;20215;-78
2022/07/18 12:32:39;;;;;;;0.50;0.50;;;33.20;89.60;;;;;;5086152;28;20218;-80
2022/07/18 12:35:10;;;;;;;0.57;0.30;;;32.80;90.00;;;;;;5080392;28;20202;-80
2022/07/18 12:37:36;;;;;;;0.22;0.22;;;33.10;90.20;;;;;;5065682;28;20189;-80
2022/07/18 12:40:08;;;;;;;0.20;0.20;;;33.60;90.50;;;;;;5071113;28;20184;-79
2022/07/18 12:42:39;;;;;;;0.20;0.20;;;33.60;90.60;;;;;;5067876;28;20204;-79
2022/07/18 12:45:10;;;;;;;1.67;0.40;;;33.70;90.60;;;;;;5069326;28;20185;-79
2022/07/18 12:47:36;;;;;;;0.22;0.22;;;34.00;90.00;;;;;;5089488;28;20211;-80
2022/07/18 12:50:04;;;;;;;0.30;0.30;;;33.70;90.00;;;;;;5072316;28;20216;-79
2022/07/18 12:52:30;;;;;;;0.35;0.35;;;33.40;89.50;;;;;;5073027;28;20193;-79
2022/07/18 12:54:55;;;;;;;0.35;0.35;;;33.10;90.10;;;;;;5072825;28;20280;-80
2022/07/18 12:57:21;;;;;;;0.50;0.50;;;33.10;90.50;;;;;;5068465;28;20186;-80
2022/07/18 12:59:47;;;;;;;0.40;0.40;;;33.40;89.30;;;;;;5067796;28;20221;-79
2022/07/18 13:02:14;;;;;;;0.30;0.30;;;33.40;90.20;;;;;;5067392;28;20197;-80